Callender, IA

5:34 AM CDT on July 28, 2014 (GMT -0500)
Boone Municipal (KBNW) Elev 1161 ft | 42.05 °N, 93.85 °W | Change Station

Current weather conditions updated 19 minutes ago

Scattered Clouds
Scattered Clouds
59 °F
Feels Like 59 °F
N
8
Wind Variable Wind from NNW

Today is forecast to be nearly the same temperature as yesterday. Showers possible in the afternoon.

Today
High -- | Low -- °F
--% Chance of Precip.
Yesterday
High -- | Low -- °F
Precip. -- in
6:05 AM 8:41 PM
New Moon, 2% visible
Pressure 30.16 in
Visibility 10.0 miles
Clouds Scattered Clouds 7500 ft
Dew Point 59 °F
Humidity 100%
Rainfall 0.00 in
Snow Depth Not available.
UV 0 out of 12
Pollen 6.90 out of 12
Air Quality Not available.
Flu Activity Not available.
METAR KBNW 281015Z AUTO 33007KT 10SM SCT075 15/15 A3016 RMK AO2

More Conditions Fewer Conditions

Pressure 30.16 in
Visibility 10.0 miles
Clouds Scattered Clouds 7500 ft
Dew Point 59 °F
Humidity 100%
Rainfall 0.00 in
Snow Depth Not available.
UV 0 out of 12
Pollen 6.90 out of 12
Air Quality Not available.
Flu Activity Not available.
METAR KBNW 281015Z AUTO 33007KT 10SM SCT075 15/15 A3016 RMK AO2

More Conditions Fewer Conditions

10-Day Weather Forecast

Almanac

Astronomy

Jul. 28, 2014 Rise Set
Actual Time 6:05 AM CDT 8:41 PM CDT
Civil Twilight 5:33 AM CDT 9:13 PM CDT
Nautical Twilight 4:53 AM CDT 9:53 PM CDT
Astronomical Twilight 4:07 AM CDT 10:38 PM CDT
Moon 7:51 AM CDT 9:19 PM CDT
Length of Visible Light 15h 39m
Length of Day
14h 35m
Tomorrow will be 2m 2s shorter.
New Moon, 2% of the Moon is Illuminated
Today
New Moon
Aug 3
First Quarter
Aug 10
Full
Aug 17
Last Quarter
Aug 25
New

Today's Extremes

State Highs State Lows

Community

WunderPhotos

Upload Photos

1,738,295 photos uploaded!

Nearby

Snow Depth

Station Depth Elevation
No new snow has been reported.

Earthquake Activity

City Distance Mag. Time & Date
No recent earthquake activity has been reported nearby.
Minimum magnitude displayed is 2.5.

Coastal Water Temperatures

Place Temperature
No Stations Reporting

Nearby Weather Stations

Station Location Temp. Dew Point Humidity Wind Precip. Elev Updated Type
Lohrville NE, Lohrville, IA 55.6 °F 55 °F 99% WNW  at  4.5 mph 0.00 in / hr 1170 ft 5:34 AM CDT Rapid Fire
Expo Pool Area, Fort Dodge, IA 57.6 °F 56 °F 93% West  at  1.7 mph - / hr 1093 ft 5:25 AM CDT Normal
Duncombe School area, Fort Dodge, IA 58.8 °F 57 °F 94% WNW  at  0.0 mph 0.00 in / hr 1109 ft 5:34 AM CDT Rapid Fire
Lohrville, IA 55.8 °F 56 °F 99% SSW  at  2.2 mph - / hr 1150 ft 5:20 AM CDT Normal
Badger IA, Badger, IA 58.3 °F 57 °F 95% NW  at  2.0 mph 0.00 in / hr 1142 ft 5:29 AM CDT Normal
NW of Badger by DSM River, Badger, IA 58.2 °F 57 °F 96% SSE  at  0.0 mph 0.00 in / hr 1125 ft 5:34 AM CDT Rapid Fire
Midwest, Lake City, IA 56.5 °F 55 °F 94% NNW  at  2.0 mph 0.00 in / hr 1201 ft 5:31 AM CDT Normal
Pioneer Valley, Humboldt, IA 60.1 °F 60 °F 99% NW  at  3.1 mph 0.00 in / hr 1125 ft 5:24 AM CDT Normal

Show More Stations Show Fewer Stations